Portada
METAR-TAF:

METAR-TAF

Aeroports :

Tindouf, Algèria

latitud: 27-40N, longitud: 008-08W, altitud: 431 m

Observació

L'informe es va fer fa 14 minuts, a les 17:00 UTC
Vent 6 kt del Est/Nord-Est
Temperatura 20°C
Humitat 21%
Pressió 1023 hPa
Visibilitat 10 km o més
sense núvols per sota de 1500 mi sense presència de cumulonimbus.

METAR: DAOF 101700Z 06006KT CAVOK 20/M03 Q1023

Hora: 18:14 (17:14 UTC)

Pronòstic

L'informe es va fer fa 3 hores i 14 minuts, a les 14:00 UTC
Pronòstic vàlid del 10 a les 15 UTC al 10 a les 24 UTC
Vent 8 kt del Est/Nord-Est
Visibilitat 10 km o més
sense núvols per sota de 1500 mi sense presència de cumulonimbus.

TAF: DAOF 101400Z 1015/1024 06008KT CAVOK

Observacions i pronòstics meteorològics de més de 4000 aeroports (METAR i TAF).

Les estacions disponibles són els punts grocs i vermells al mapa.

Posi el ratolí al punt desitjat per veure el nom de l'estació.

Feu clic per veure les observacions i els pronòstics meteorològics.

Per canviar el mapa: feu clic els botons verds amb una creu de color negre per apropar; al botó verd amb un guió per allunyar la imatge; o en les fletxes verdes per a mapes adjacents.


METAR-TAF: